Time,TemperatureF,DewpointF,PressureIn,WindDirection,WindDirectionDegrees,WindSpeedMPH,WindSpeedGustMPH,Humidity,HourlyPrecipIn,Conditions,Clouds,dailyrainin,SoftwareType,DateUTC
2013-03-24 00:00:00,29.5,23.5,29.85,ENE,68,2.5,2.5,78,0.00,,---,0.00,VWS V14.01,2013-03-24 05:00:00,
2013-03-24 00:05:00,29.5,23.5,29.85,ENE,68,4.0,4.0,78,0.00,,---,0.00,VWS V14.01,2013-03-24 05:05:00,
2013-03-24 00:10:00,29.5,23.5,29.85,North,0,3.1,3.1,78,0.00,,---,0.00,VWS V14.01,2013-03-24 05:10:00,
2013-03-24 00:15:00,29.5,23.5,29.85,WNW,292,3.6,3.6,78,0.00,,---,0.00,VWS V14.01,2013-03-24 05:15:00,
2013-03-24 00:20:00,29.5,23.5,29.85,NE,45,4.3,4.3,78,0.00,,---,0.00,VWS V14.01,2013-03-24 05:20:00,
2013-03-24 00:26:00,29.3,23.3,29.85,North,0,2.7,2.7,78,0.00,,---,0.00,VWS V14.01,2013-03-24 05:26:00,
2013-03-24 00:31:00,29.5,23.5,29.85,NNE,22,2.5,2.5,78,0.00,,---,0.00,VWS V14.01,2013-03-24 05:31:00,
2013-03-24 00:36:00,29.5,23.5,29.85,NNE,22,4.5,4.5,78,0.00,,---,0.00,VWS V14.01,2013-03-24 05:36:00,
2013-03-24 00:41:00,29.5,23.5,29.85,North,0,4.0,4.0,78,0.00,,---,0.00,VWS V14.01,2013-03-24 05:41:00,
2013-03-24 00:46:00,29.5,23.5,29.85,NNE,22,3.1,3.1,78,0.00,,---,0.00,VWS V14.01,2013-03-24 05:46:00,
2013-03-24 00:51:00,29.5,23.5,29.85,NE,45,2.9,2.9,78,0.00,,---,0.00,VWS V14.01,2013-03-24 05:51:00,
2013-03-24 00:56:00,29.5,23.5,29.85,SW,225,2.0,3.6,78,0.00,,---,0.00,VWS V14.01,2013-03-24 05:56:00,
2013-03-24 01:01:00,29.5,23.5,29.85,NNW,338,2.7,2.7,78,0.00,,---,0.00,VWS V14.01,2013-03-24 06:01:00,
2013-03-24 01:06:00,29.5,23.5,29.85,NNE,22,2.7,2.7,78,0.00,,---,0.00,VWS V14.01,2013-03-24 06:06:00,
2013-03-24 01:11:00,29.5,23.5,29.85,NNW,338,4.9,4.9,78,0.00,,---,0.00,VWS V14.01,2013-03-24 06:11:00,
2013-03-24 01:16:00,29.5,23.5,29.85,SE,135,2.5,2.5,78,0.00,,---,0.00,VWS V14.01,2013-03-24 06:16:00,
2013-03-24 01:21:00,29.5,23.8,29.85,NNE,22,3.4,4.0,79,0.00,,---,0.00,VWS V14.01,2013-03-24 06:21:00,
2013-03-24 01:26:00,29.3,23.6,29.85,NNW,338,2.7,2.7,79,0.00,,---,0.00,VWS V14.01,2013-03-24 06:26:00,
2013-03-24 01:31:00,29.3,23.6,29.85,NNW,338,3.1,3.1,79,0.00,,---,0.00,VWS V14.01,2013-03-24 06:31:00,
2013-03-24 01:36:00,29.3,23.6,29.85,NNW,338,2.0,3.8,79,0.00,,---,0.00,VWS V14.01,2013-03-24 06:36:00,
2013-03-24 01:41:00,29.3,23.6,29.85,NNE,22,1.3,1.3,79,0.00,,---,0.00,VWS V14.01,2013-03-24 06:41:00,
2013-03-24 01:46:00,29.3,23.6,29.85,NNW,338,4.0,4.0,79,0.00,,---,0.00,VWS V14.01,2013-03-24 06:46:00,
2013-03-24 01:51:00,29.1,23.4,29.85,NE,45,7.8,7.8,79,0.00,,---,0.00,VWS V14.01,2013-03-24 06:51:00,
2013-03-24 01:56:00,29.1,23.4,29.85,NE,45,7.8,7.8,79,0.00,,---,0.00,VWS V14.01,2013-03-24 06:56:00,
2013-03-24 02:01:00,28.8,23.1,29.85,NW,315,2.9,2.9,79,0.00,,---,0.00,VWS V14.01,2013-03-24 07:01:00,
2013-03-24 02:07:00,28.8,23.1,29.85,NNW,338,3.4,3.4,79,0.00,,---,0.00,VWS V14.01,2013-03-24 07:07:00,
2013-03-24 02:12:00,28.6,22.9,29.85,NNE,22,6.0,6.0,79,0.00,,---,0.00,VWS V14.01,2013-03-24 07:12:00,
2013-03-24 02:17:00,28.6,22.9,29.85,NE,45,3.4,3.4,79,0.00,,---,0.00,VWS V14.01,2013-03-24 07:17:00,
2013-03-24 02:22:00,28.4,23.0,29.85,NNW,338,2.9,2.9,80,0.00,,---,0.00,VWS V14.01,2013-03-24 07:22:00,
2013-03-24 02:27:00,28.4,23.0,29.85,ESE,112,9.4,9.4,80,0.00,,---,0.00,VWS V14.01,2013-03-24 07:27:00,
2013-03-24 02:32:00,28.2,22.9,29.85,NNW,338,7.4,7.4,80,0.00,,---,0.00,VWS V14.01,2013-03-24 07:32:00,
2013-03-24 02:37:00,28.2,22.9,29.85,WNW,292,2.5,2.5,80,0.00,,---,0.00,VWS V14.01,2013-03-24 07:37:00,
2013-03-24 02:42:00,28.0,22.7,29.85,NE,45,4.3,4.3,80,0.00,,---,0.00,VWS V14.01,2013-03-24 07:42:00,
2013-03-24 02:47:00,28.0,22.7,29.85,NNW,338,4.3,4.3,80,0.00,,---,0.00,VWS V14.01,2013-03-24 07:47:00,
2013-03-24 02:52:00,27.9,22.5,29.85,WNW,292,8.5,8.5,80,0.00,,---,0.00,VWS V14.01,2013-03-24 07:52:00,
2013-03-24 02:57:00,27.9,22.5,29.85,WNW,292,7.2,7.2,80,0.00,,---,0.00,VWS V14.01,2013-03-24 07:57:00,
2013-03-24 03:02:00,27.9,22.5,29.85,NNE,22,4.0,4.0,80,0.00,,---,0.00,VWS V14.01,2013-03-24 08:02:00,
2013-03-24 03:07:00,27.9,22.5,29.85,NW,315,5.8,5.8,80,0.00,,---,0.00,VWS V14.01,2013-03-24 08:07:00,
2013-03-24 03:12:00,27.7,22.3,29.85,SSW,202,5.8,5.8,80,0.00,,---,0.00,VWS V14.01,2013-03-24 08:12:00,
2013-03-24 03:17:00,27.7,22.3,29.85,NNW,338,9.8,9.8,80,0.00,,---,0.00,VWS V14.01,2013-03-24 08:17:00,
2013-03-24 03:22:00,27.7,22.3,29.85,NW,315,3.8,3.8,80,0.00,,---,0.00,VWS V14.01,2013-03-24 08:22:00,
2013-03-24 03:27:00,27.5,22.1,29.85,NNW,338,8.5,8.5,80,0.00,,---,0.00,VWS V14.01,2013-03-24 08:27:00,
2013-03-24 03:32:00,27.5,22.1,29.85,NNW,338,6.5,6.5,80,0.00,,---,0.00,VWS V14.01,2013-03-24 08:32:00,
2013-03-24 03:37:00,27.5,22.1,29.85,ENE,68,3.6,3.6,80,0.00,,---,0.00,VWS V14.01,2013-03-24 08:37:00,
2013-03-24 03:42:00,27.5,22.1,29.85,NNE,22,4.9,5.4,80,0.00,,---,0.00,VWS V14.01,2013-03-24 08:42:00,
2013-03-24 03:47:00,27.5,22.1,29.85,NNE,22,4.9,4.9,80,0.00,,---,0.00,VWS V14.01,2013-03-24 08:47:00,
2013-03-24 03:52:00,27.7,22.3,29.85,NNE,22,4.9,4.9,80,0.00,,---,0.00,VWS V14.01,2013-03-24 08:52:00,
2013-03-24 03:57:00,27.7,22.3,29.85,NNE,22,4.9,4.9,80,0.00,,---,0.00,VWS V14.01,2013-03-24 08:57:00,
2013-03-24 04:02:00,27.7,22.3,29.85,NNE,22,4.9,4.9,80,0.00,,---,0.00,VWS V14.01,2013-03-24 09:02:00,
2013-03-24 04:07:00,27.5,22.1,29.85,NNE,22,4.9,4.9,80,0.00,,---,0.00,VWS V14.01,2013-03-24 09:07:00,
2013-03-24 04:12:00,27.5,22.1,29.82,NNE,22,4.9,4.9,80,0.00,,---,0.00,VWS V14.01,2013-03-24 09:12:00,
2013-03-24 04:17:00,27.5,22.1,29.82,NNE,22,4.9,4.9,80,0.00,,---,0.00,VWS V14.01,2013-03-24 09:17:00,
2013-03-24 04:22:00,27.3,21.7,29.82,NNE,22,4.9,4.9,79,0.00,,---,0.00,VWS V14.01,2013-03-24 09:22:00,
2013-03-24 04:27:00,27.0,21.3,29.82,NNE,22,4.9,4.9,79,0.00,,---,0.00,VWS V14.01,2013-03-24 09:27:00,
2013-03-24 04:32:00,27.0,21.0,29.82,NNW,338,3.8,4.0,78,0.00,,---,0.00,VWS V14.01,2013-03-24 09:32:00,
2013-03-24 04:37:00,26.8,20.9,29.82,WNW,292,5.6,5.6,78,0.00,,---,0.00,VWS V14.01,2013-03-24 09:37:00,
2013-03-24 04:43:00,26.8,20.9,29.82,WNW,292,3.6,3.6,78,0.00,,---,0.00,VWS V14.01,2013-03-24 09:43:00,
2013-03-24 04:48:00,26.6,21.0,29.82,WNW,292,3.6,3.6,79,0.00,,---,0.00,VWS V14.01,2013-03-24 09:48:00,
2013-03-24 04:53:00,26.4,20.5,29.82,WNW,292,8.7,8.7,78,0.00,,---,0.00,VWS V14.01,2013-03-24 09:53:00,
2013-03-24 04:58:00,26.4,20.5,29.82,WNW,292,8.7,8.7,78,0.00,,---,0.00,VWS V14.01,2013-03-24 09:58:00,
2013-03-24 05:03:00,26.2,20.3,29.82,WNW,292,8.7,8.7,78,0.00,,---,0.00,VWS V14.01,2013-03-24 10:03:00,
2013-03-24 05:08:00,26.2,20.3,29.82,WNW,292,8.7,8.7,78,0.00,,---,0.00,VWS V14.01,2013-03-24 10:08:00,
2013-03-24 05:13:00,26.1,20.1,29.82,WNW,292,8.7,8.7,78,0.00,,---,0.00,VWS V14.01,2013-03-24 10:13:00,
2013-03-24 05:18:00,26.1,20.1,29.82,ENE,68,4.0,4.0,78,0.00,,---,0.00,VWS V14.01,2013-03-24 10:18:00,
2013-03-24 05:23:00,26.1,20.1,29.82,ENE,68,4.0,4.0,78,0.00,,---,0.00,VWS V14.01,2013-03-24 10:23:00,
2013-03-24 05:28:00,25.9,20.0,29.82,ESE,112,3.8,3.8,78,0.00,,---,0.00,VWS V14.01,2013-03-24 10:28:00,
2013-03-24 05:33:00,25.7,19.8,29.82,South,180,3.1,3.1,78,0.00,,---,0.00,VWS V14.01,2013-03-24 10:33:00,
2013-03-24 05:38:00,25.7,19.8,29.82,ESE,112,4.0,4.0,78,0.00,,---,0.00,VWS V14.01,2013-03-24 10:38:00,
2013-03-24 05:43:00,25.7,19.8,29.82,ESE,112,4.0,4.0,78,0.00,,---,0.00,VWS V14.01,2013-03-24 10:43:00,
2013-03-24 05:48:00,25.5,19.6,29.82,ESE,112,4.0,4.0,78,0.00,,---,0.00,VWS V14.01,2013-03-24 10:48:00,
2013-03-24 05:53:00,25.5,19.6,29.82,ESE,112,4.0,4.0,78,0.00,,---,0.00,VWS V14.01,2013-03-24 10:53:00,
2013-03-24 05:58:00,25.5,19.6,29.82,ESE,112,4.0,4.0,78,0.00,,---,0.00,VWS V14.01,2013-03-24 10:58:00,
2013-03-24 06:03:00,25.5,19.6,29.82,ESE,112,4.0,4.0,78,0.00,,---,0.00,VWS V14.01,2013-03-24 11:03:00,
2013-03-24 06:08:00,25.5,19.9,29.82,NNE,22,2.7,3.1,79,0.00,,---,0.00,VWS V14.01,2013-03-24 11:08:00,
2013-03-24 06:13:00,25.5,19.9,29.82,WNW,292,2.9,2.9,79,0.00,,---,0.00,VWS V14.01,2013-03-24 11:13:00,
2013-03-24 06:18:00,25.7,20.1,29.82,ESE,112,2.9,5.6,79,0.00,,---,0.00,VWS V14.01,2013-03-24 11:18:00,
2013-03-24 06:23:00,25.7,20.1,29.82,NNE,22,3.8,3.8,79,0.00,,---,0.00,VWS V14.01,2013-03-24 11:23:00,
2013-03-24 06:28:00,25.7,20.1,29.82,NNE,22,3.1,3.1,79,0.00,,---,0.00,VWS V14.01,2013-03-24 11:28:00,
2013-03-24 06:33:00,25.7,20.1,29.82,NNW,338,3.4,3.4,79,0.00,,---,0.00,VWS V14.01,2013-03-24 11:33:00,
2013-03-24 06:38:00,25.9,20.3,29.82,NNW,338,3.4,3.4,79,0.00,,---,0.00,VWS V14.01,2013-03-24 11:38:00,
2013-03-24 06:43:00,26.1,20.5,29.82,NNW,338,3.4,3.4,79,0.00,,---,0.00,VWS V14.01,2013-03-24 11:43:00,
2013-03-24 06:48:00,26.1,20.5,29.82,NNW,338,3.4,3.4,79,0.00,,---,0.00,VWS V14.01,2013-03-24 11:48:00,
2013-03-24 06:53:00,26.1,20.5,29.82,NNW,338,3.4,3.4,79,0.00,,---,0.00,VWS V14.01,2013-03-24 11:53:00,
2013-03-24 06:58:00,26.1,20.5,29.82,NNW,338,3.4,3.4,79,0.00,,---,0.00,VWS V14.01,2013-03-24 11:58:00,
2013-03-24 07:03:00,26.1,20.5,29.82,NNW,338,3.4,3.4,79,0.00,,---,0.00,VWS V14.01,2013-03-24 12:03:00,
2013-03-24 07:08:00,26.1,20.5,29.82,NNW,338,3.4,3.4,79,0.00,,---,0.00,VWS V14.01,2013-03-24 12:08:00,
2013-03-24 07:13:00,26.1,20.8,29.82,NNW,338,3.4,3.4,80,0.00,,---,0.00,VWS V14.01,2013-03-24 12:13:00,
2013-03-24 07:18:00,26.1,20.8,29.82,NNW,338,3.8,5.4,80,0.00,,---,0.00,VWS V14.01,2013-03-24 12:18:00,
2013-03-24 07:23:00,26.1,20.8,29.82,NNW,338,3.8,3.8,80,0.00,,---,0.00,VWS V14.01,2013-03-24 12:23:00,
2013-03-24 07:28:00,26.1,20.8,29.82,NNW,338,3.8,3.8,80,0.00,,---,0.00,VWS V14.01,2013-03-24 12:28:00,
2013-03-24 07:33:00,26.1,20.8,29.82,ESE,112,6.5,6.5,80,0.00,,---,0.00,VWS V14.01,2013-03-24 12:33:00,
2013-03-24 07:38:00,26.2,20.9,29.82,North,0,2.7,3.1,80,0.00,,---,0.00,VWS V14.01,2013-03-24 12:38:00,
2013-03-24 07:43:00,26.2,20.9,29.82,NE,45,4.3,4.3,80,0.00,,---,0.00,VWS V14.01,2013-03-24 12:43:00,
2013-03-24 07:48:00,26.2,20.9,29.82,NW,315,3.8,3.8,80,0.00,,---,0.00,VWS V14.01,2013-03-24 12:48:00,
2013-03-24 07:53:00,26.4,21.1,29.82,NE,45,2.7,2.7,80,0.00,,---,0.00,VWS V14.01,2013-03-24 12:53:00,
2013-03-24 07:58:00,26.4,21.1,29.82,NNE,22,3.1,3.1,80,0.00,,---,0.00,VWS V14.01,2013-03-24 12:58:00,
2013-03-24 08:03:00,26.4,21.1,29.82,NNW,338,2.5,2.5,80,0.00,,---,0.00,VWS V14.01,2013-03-24 13:03:00,
2013-03-24 08:08:00,26.4,21.1,29.82,NNW,338,2.7,2.7,80,0.00,,---,0.00,VWS V14.01,2013-03-24 13:08:00,
2013-03-24 08:14:00,26.6,21.0,29.82,NNW,338,3.8,3.8,79,0.00,,---,0.00,VWS V14.01,2013-03-24 13:14:00,
2013-03-24 08:19:00,26.6,21.0,29.82,NNW,338,3.1,3.6,79,0.00,,---,0.00,VWS V14.01,2013-03-24 13:19:00,
2013-03-24 08:24:00,26.6,21.0,29.82,SSE,158,6.7,6.7,79,0.00,,---,0.00,VWS V14.01,2013-03-24 13:24:00,
2013-03-24 08:29:00,26.6,21.0,29.82,WNW,292,6.5,6.5,79,0.00,,---,0.00,VWS V14.01,2013-03-24 13:29:00,
2013-03-24 08:34:00,26.6,21.0,29.85,NW,315,5.4,6.5,79,0.00,,---,0.00,VWS V14.01,2013-03-24 13:34:00,
2013-03-24 08:39:00,26.6,21.0,29.85,NNW,338,3.8,3.8,79,0.00,,---,0.00,VWS V14.01,2013-03-24 13:39:00,
2013-03-24 08:44:00,26.6,21.0,29.85,NNW,338,4.0,4.0,79,0.00,,---,0.00,VWS V14.01,2013-03-24 13:44:00,
2013-03-24 08:49:00,26.4,20.8,29.85,WNW,292,7.6,7.6,79,0.00,,---,0.00,VWS V14.01,2013-03-24 13:49:00,
2013-03-24 08:54:00,26.4,20.8,29.85,WNW,292,6.0,6.0,79,0.00,,---,0.00,VWS V14.01,2013-03-24 13:54:00,
2013-03-24 08:59:00,26.4,20.8,29.85,WNW,292,6.0,6.0,79,0.00,,---,0.00,VWS V14.01,2013-03-24 13:59:00,
2013-03-24 09:04:00,26.4,20.5,29.82,WNW,292,6.0,6.0,78,0.00,,---,0.00,VWS V14.01,2013-03-24 14:04:00,
2013-03-24 09:09:00,26.4,20.5,29.82,WNW,292,6.0,6.0,78,0.00,,---,0.00,VWS V14.01,2013-03-24 14:09:00,
2013-03-24 09:14:00,26.4,20.5,29.82,WNW,292,6.0,6.0,78,0.00,,---,0.00,VWS V14.01,2013-03-24 14:14:00,
2013-03-24 09:19:00,26.6,20.7,29.82,NW,315,4.0,4.0,78,0.00,,---,0.00,VWS V14.01,2013-03-24 14:19:00,
2013-03-24 09:24:00,26.6,20.7,29.82,NW,315,4.0,4.0,78,0.00,,---,0.00,VWS V14.01,2013-03-24 14:24:00,
2013-03-24 09:29:00,26.6,20.7,29.82,NW,315,4.0,4.0,78,0.00,,---,0.00,VWS V14.01,2013-03-24 14:29:00,
2013-03-24 09:34:00,26.6,20.4,29.82,WNW,292,8.5,8.5,77,0.00,,---,0.00,VWS V14.01,2013-03-24 14:34:00,
2013-03-24 09:39:00,26.6,20.4,29.82,NNW,338,8.1,8.1,77,0.00,,---,0.00,VWS V14.01,2013-03-24 14:39:00,
2013-03-24 09:44:00,26.6,20.4,29.82,NNE,22,7.6,7.6,77,0.00,,---,0.00,VWS V14.01,2013-03-24 14:44:00,
2013-03-24 09:49:00,26.8,20.5,29.85,NE,45,2.7,2.7,77,0.00,,---,0.00,VWS V14.01,2013-03-24 14:49:00,
2013-03-24 09:54:00,26.6,20.4,29.85,WNW,292,7.4,7.4,77,0.00,,---,0.00,VWS V14.01,2013-03-24 14:54:00,
2013-03-24 09:59:00,26.8,20.2,29.85,WNW,292,7.4,7.4,76,0.00,,---,0.00,VWS V14.01,2013-03-24 14:59:00,
2013-03-24 10:04:00,27.0,20.4,29.85,NW,315,4.3,4.3,76,0.00,,---,0.00,VWS V14.01,2013-03-24 15:04:00,
2013-03-24 10:09:00,27.1,20.6,29.85,North,0,10.5,10.5,76,0.00,,---,0.00,VWS V14.01,2013-03-24 15:09:00,
2013-03-24 10:14:00,27.3,20.8,29.85,NNW,338,6.0,6.0,76,0.00,,---,0.00,VWS V14.01,2013-03-24 15:14:00,
2013-03-24 10:19:00,27.3,20.5,29.85,WSW,248,11.0,11.0,75,0.00,,---,0.00,VWS V14.01,2013-03-24 15:19:00,
2013-03-24 10:24:00,27.1,20.3,29.85,NNW,338,7.6,7.6,75,0.00,,---,0.00,VWS V14.01,2013-03-24 15:24:00,
2013-03-24 10:29:00,27.1,20.3,29.85,NE,45,10.5,10.5,75,0.00,,---,0.00,VWS V14.01,2013-03-24 15:29:00,
2013-03-24 10:34:00,27.0,20.1,29.85,NNW,338,9.4,9.4,75,0.00,,---,0.00,VWS V14.01,2013-03-24 15:34:00,
2013-03-24 10:39:00,26.8,19.6,29.85,WNW,292,4.0,4.0,74,0.00,,---,0.00,VWS V14.01,2013-03-24 15:39:00,
2013-03-24 10:44:00,27.1,20.3,29.85,NNW,338,4.9,4.9,75,0.00,,---,0.00,VWS V14.01,2013-03-24 15:44:00,
2013-03-24 10:49:00,27.1,20.0,29.85,SSW,202,3.8,3.8,74,0.00,,---,0.00,VWS V14.01,2013-03-24 15:49:00,
2013-03-24 10:54:00,27.3,20.1,29.85,NNE,22,7.8,7.8,74,0.00,,---,0.00,VWS V14.01,2013-03-24 15:54:00,
2013-03-24 10:59:00,27.5,20.3,29.85,NNW,338,3.8,3.8,74,0.00,,---,0.00,VWS V14.01,2013-03-24 15:59:00,
2013-03-24 11:04:00,27.5,20.0,29.85,NW,315,5.6,7.2,73,0.00,,---,0.00,VWS V14.01,2013-03-24 16:04:00,
2013-03-24 11:09:00,27.7,20.2,29.85,NNE,22,5.6,6.3,73,0.00,,---,0.00,VWS V14.01,2013-03-24 16:09:00,
2013-03-24 11:14:00,27.7,19.9,29.85,WNW,292,5.4,5.4,72,0.00,,---,0.00,VWS V14.01,2013-03-24 16:14:00,
2013-03-24 11:19:00,27.5,19.7,29.85,WNW,292,5.8,5.8,72,0.00,,---,0.00,VWS V14.01,2013-03-24 16:19:00,
2013-03-24 11:24:00,27.7,19.9,29.85,NNW,338,4.3,4.3,72,0.00,,---,0.00,VWS V14.01,2013-03-24 16:24:00,
2013-03-24 11:29:00,27.7,19.5,29.85,NNW,338,7.4,7.4,71,0.00,,---,0.00,VWS V14.01,2013-03-24 16:29:00,
2013-03-24 11:34:00,27.5,19.4,29.85,NNW,338,12.3,12.3,71,0.00,,---,0.00,VWS V14.01,2013-03-24 16:34:00,
2013-03-24 11:39:00,27.5,19.4,29.85,NNW,338,10.5,10.5,71,0.00,,---,0.00,VWS V14.01,2013-03-24 16:39:00,
2013-03-24 11:44:00,27.7,19.5,29.85,NNW,338,3.6,3.6,71,0.00,,---,0.00,VWS V14.01,2013-03-24 16:44:00,
2013-03-24 11:49:00,27.7,19.5,29.85,NNE,22,5.8,12.5,71,0.00,,---,0.00,VWS V14.01,2013-03-24 16:49:00,
2013-03-24 11:54:00,27.5,19.4,29.85,NNW,338,9.2,9.2,71,0.00,,---,0.00,VWS V14.01,2013-03-24 16:54:00,
2013-03-24 11:59:00,27.5,19.0,29.85,NW,315,6.0,6.0,70,0.00,,---,0.00,VWS V14.01,2013-03-24 16:59:00,
2013-03-24 12:04:00,27.3,18.8,29.85,NNW,338,5.4,5.4,70,0.00,,---,0.00,VWS V14.01,2013-03-24 17:04:00,
2013-03-24 12:09:00,27.7,19.5,29.85,NNW,338,5.4,5.4,71,0.00,,---,0.00,VWS V14.01,2013-03-24 17:09:00,
2013-03-24 12:14:00,27.9,19.4,29.85,NNW,338,5.4,5.4,70,0.00,,---,0.00,VWS V14.01,2013-03-24 17:14:00,
2013-03-24 12:19:00,28.0,19.9,29.85,NW,315,3.1,5.4,71,0.00,,---,0.00,VWS V14.01,2013-03-24 17:19:00,
2013-03-24 12:24:00,28.2,20.0,29.85,NW,315,3.1,3.1,71,0.00,,---,0.00,VWS V14.01,2013-03-24 17:24:00,
2013-03-24 12:29:00,27.9,19.7,29.85,NNW,338,2.5,2.9,71,0.00,,---,0.00,VWS V14.01,2013-03-24 17:29:00,
2013-03-24 12:34:00,27.9,19.7,29.85,NNW,338,2.5,2.5,71,0.00,,---,0.00,VWS V14.01,2013-03-24 17:34:00,
2013-03-24 12:39:00,27.9,19.4,29.85,NNW,338,2.5,2.5,70,0.00,,---,0.00,VWS V14.01,2013-03-24 17:39:00,
2013-03-24 12:45:00,27.7,19.2,29.85,WNW,292,4.9,4.9,70,0.00,,---,0.00,VWS V14.01,2013-03-24 17:45:00,
2013-03-24 12:50:00,28.0,19.2,29.85,SSE,158,5.8,5.8,69,0.00,,---,0.00,VWS V14.01,2013-03-24 17:50:00,
2013-03-24 12:55:00,28.6,19.4,29.85,North,0,8.1,8.1,68,0.00,,---,0.00,VWS V14.01,2013-03-24 17:55:00,
2013-03-24 13:00:00,28.8,19.2,29.85,NNW,338,9.2,11.2,67,0.00,,---,0.00,VWS V14.01,2013-03-24 18:00:00,
2013-03-24 13:05:00,29.5,19.9,29.85,NNW,338,13.2,13.2,67,0.00,,---,0.00,VWS V14.01,2013-03-24 18:05:00,
2013-03-24 13:10:00,29.5,19.5,29.85,NNE,22,5.8,7.4,66,0.00,,---,0.00,VWS V14.01,2013-03-24 18:10:00,
2013-03-24 13:15:00,29.7,19.7,29.85,NNW,338,8.1,8.1,66,0.00,,---,0.00,VWS V14.01,2013-03-24 18:15:00,
2013-03-24 13:20:00,30.0,19.3,29.85,SW,225,2.9,5.4,64,0.00,,---,0.00,VWS V14.01,2013-03-24 18:20:00,
2013-03-24 13:25:00,30.6,19.9,29.85,WNW,292,9.0,10.1,64,0.00,,---,0.00,VWS V14.01,2013-03-24 18:25:00,
2013-03-24 13:30:00,30.4,19.3,29.85,NNW,338,8.1,10.7,63,0.00,,---,0.00,VWS V14.01,2013-03-24 18:30:00,
2013-03-24 13:35:00,30.2,19.5,29.85,WNW,292,6.7,6.7,64,0.00,,---,0.00,VWS V14.01,2013-03-24 18:35:00,
2013-03-24 13:40:00,30.0,18.6,29.85,NNW,338,8.5,8.5,62,0.00,,---,0.00,VWS V14.01,2013-03-24 18:40:00,
2013-03-24 13:45:00,30.2,19.1,29.85,NW,315,7.2,7.2,63,0.00,,---,0.00,VWS V14.01,2013-03-24 18:45:00,
2013-03-24 13:50:00,30.4,18.9,29.82,NNW,338,12.1,12.1,62,0.00,,---,0.00,VWS V14.01,2013-03-24 18:50:00,
2013-03-24 13:55:00,30.2,18.8,29.82,North,0,6.5,6.7,62,0.00,,---,0.00,VWS V14.01,2013-03-24 18:55:00,
2013-03-24 14:00:00,30.7,19.3,29.82,East,90,5.6,5.6,62,0.00,,---,0.00,VWS V14.01,2013-03-24 19:00:00,
2013-03-24 14:05:00,30.7,18.9,29.82,NNW,338,4.9,4.9,61,0.00,,---,0.00,VWS V14.01,2013-03-24 19:05:00,
2013-03-24 14:10:00,30.9,19.1,29.82,WNW,292,6.9,6.9,61,0.00,,---,0.00,VWS V14.01,2013-03-24 19:10:00,
2013-03-24 14:15:00,30.6,18.7,29.82,NNW,338,6.5,6.9,61,0.00,,---,0.00,VWS V14.01,2013-03-24 19:15:00,
2013-03-24 14:20:00,30.6,18.7,29.82,NNW,338,10.5,11.0,61,0.00,,---,0.00,VWS V14.01,2013-03-24 19:20:00,
2013-03-24 14:25:00,30.2,18.0,29.82,WSW,248,6.5,6.5,60,0.00,,---,0.00,VWS V14.01,2013-03-24 19:25:00,
2013-03-24 14:30:00,30.0,17.8,29.82,WNW,292,6.5,6.5,60,0.00,,---,0.00,VWS V14.01,2013-03-24 19:30:00,
2013-03-24 14:35:00,30.2,18.4,29.82,NNW,338,5.4,5.4,61,0.00,,---,0.00,VWS V14.01,2013-03-24 19:35:00,
2013-03-24 14:40:00,30.2,18.0,29.82,NNW,338,4.3,7.8,60,0.00,,---,0.00,VWS V14.01,2013-03-24 19:40:00,
2013-03-24 14:45:00,30.0,17.8,29.82,SSE,158,4.7,4.7,60,0.00,,---,0.00,VWS V14.01,2013-03-24 19:45:00,
2013-03-24 14:50:00,30.0,18.2,29.82,WNW,292,5.8,10.7,61,0.00,,---,0.00,VWS V14.01,2013-03-24 19:50:00,
2013-03-24 14:55:00,29.8,18.4,29.82,WNW,292,8.7,10.3,62,0.00,,---,0.00,VWS V14.01,2013-03-24 19:55:00,
2013-03-24 15:00:00,29.7,18.2,29.82,ENE,68,5.8,7.6,62,0.00,,---,0.00,VWS V14.01,2013-03-24 20:00:00,
2013-03-24 15:05:00,29.7,17.9,29.82,NNW,338,5.4,6.0,61,0.00,,---,0.00,VWS V14.01,2013-03-24 20:05:00,
2013-03-24 15:10:00,29.5,18.1,29.82,WNW,292,12.3,12.3,62,0.00,,---,0.00,VWS V14.01,2013-03-24 20:10:00,
2013-03-24 15:15:00,29.5,18.1,29.82,WNW,292,4.9,4.9,62,0.00,,---,0.00,VWS V14.01,2013-03-24 20:15:00,
2013-03-24 15:20:00,29.5,18.1,29.82,NW,315,6.0,9.8,62,0.00,,---,0.00,VWS V14.01,2013-03-24 20:20:00,
2013-03-24 15:25:00,30.2,18.8,29.82,NW,315,15.7,15.7,62,0.00,,---,0.00,VWS V14.01,2013-03-24 20:25:00,
2013-03-24 15:30:00,30.2,18.4,29.82,NW,315,10.1,10.1,61,0.00,,---,0.00,VWS V14.01,2013-03-24 20:30:00,
2013-03-24 15:35:00,30.4,18.6,29.82,NW,315,13.2,13.2,61,0.00,,---,0.00,VWS V14.01,2013-03-24 20:35:00,
2013-03-24 15:40:00,30.2,18.0,29.82,NNW,338,12.1,12.1,60,0.00,,---,0.00,VWS V14.01,2013-03-24 20:40:00,
2013-03-24 15:45:00,30.2,18.0,29.82,West,270,12.1,12.1,60,0.00,,---,0.00,VWS V14.01,2013-03-24 20:45:00,
2013-03-24 15:50:00,30.4,17.8,29.82,NE,45,9.2,9.2,59,0.00,,---,0.00,VWS V14.01,2013-03-24 20:50:00,
2013-03-24 15:55:00,30.6,18.0,29.82,WNW,292,8.1,8.1,59,0.00,,---,0.00,VWS V14.01,2013-03-24 20:55:00,
2013-03-24 16:00:00,31.3,18.6,29.82,WSW,248,7.4,7.4,59,0.00,,---,0.00,VWS V14.01,2013-03-24 21:00:00,
2013-03-24 16:05:00,31.3,18.6,29.82,WNW,292,12.1,12.1,59,0.00,,---,0.00,VWS V14.01,2013-03-24 21:05:00,
2013-03-24 16:10:00,31.1,18.1,29.82,WNW,292,7.2,7.2,58,0.00,,---,0.00,VWS V14.01,2013-03-24 21:10:00,
2013-03-24 16:15:00,31.1,18.1,29.82,NNW,338,4.9,4.9,58,0.00,,---,0.00,VWS V14.01,2013-03-24 21:15:00,
2013-03-24 16:20:00,30.9,17.9,29.82,NW,315,7.4,7.4,58,0.00,,---,0.00,VWS V14.01,2013-03-24 21:20:00,
2013-03-24 16:25:00,30.6,17.6,29.82,WNW,292,8.7,8.7,58,0.00,,---,0.00,VWS V14.01,2013-03-24 21:25:00,
2013-03-24 16:30:00,30.2,17.2,29.82,WNW,292,8.5,8.5,58,0.00,,---,0.00,VWS V14.01,2013-03-24 21:30:00,
2013-03-24 16:35:00,29.7,16.7,29.82,North,0,6.3,6.3,58,0.00,,---,0.00,VWS V14.01,2013-03-24 21:35:00,
2013-03-24 16:40:00,29.5,16.9,29.82,NNW,338,7.6,7.6,59,0.00,,---,0.00,VWS V14.01,2013-03-24 21:40:00,
2013-03-24 16:45:00,29.7,17.1,29.82,NNW,338,8.5,8.5,59,0.00,,---,0.00,VWS V14.01,2013-03-24 21:45:00,
2013-03-24 16:50:00,29.5,16.9,29.82,NNW,338,5.6,5.6,59,0.00,,---,0.00,VWS V14.01,2013-03-24 21:50:00,
2013-03-24 16:55:00,29.5,16.9,29.82,WNW,292,8.5,8.7,59,0.00,,---,0.00,VWS V14.01,2013-03-24 21:55:00,
2013-03-24 17:00:00,29.5,16.9,29.82,NNE,22,7.8,7.8,59,0.00,,---,0.00,VWS V14.01,2013-03-24 22:00:00,
2013-03-24 17:05:00,29.1,16.2,29.82,NW,315,7.2,7.2,58,0.00,,---,0.00,VWS V14.01,2013-03-24 22:05:00,
2013-03-24 17:10:00,29.5,16.5,29.82,NNW,338,5.6,5.6,58,0.00,,---,0.00,VWS V14.01,2013-03-24 22:10:00,
2013-03-24 17:15:00,29.5,16.5,29.82,NE,45,5.8,5.8,58,0.00,,---,0.00,VWS V14.01,2013-03-24 22:15:00,
2013-03-24 17:20:00,29.3,16.8,29.82,NW,315,5.8,5.8,59,0.00,,---,0.00,VWS V14.01,2013-03-24 22:20:00,
2013-03-24 17:25:00,29.3,16.4,29.82,WNW,292,5.4,8.5,58,0.00,,---,0.00,VWS V14.01,2013-03-24 22:25:00,
2013-03-24 17:30:00,29.1,16.2,29.82,NNW,338,7.6,7.6,58,0.00,,---,0.00,VWS V14.01,2013-03-24 22:30:00,
2013-03-24 17:35:00,29.3,16.4,29.82,NNW,338,3.8,3.8,58,0.00,,---,0.00,VWS V14.01,2013-03-24 22:35:00,
2013-03-24 17:41:00,29.3,16.4,29.82,NNW,338,5.4,5.4,58,0.00,,---,0.00,VWS V14.01,2013-03-24 22:41:00,
2013-03-24 17:46:00,29.1,16.6,29.82,WNW,292,4.9,4.9,59,0.00,,---,0.00,VWS V14.01,2013-03-24 22:46:00,
2013-03-24 17:51:00,29.1,16.2,29.82,NNW,338,10.3,10.3,58,0.00,,---,0.00,VWS V14.01,2013-03-24 22:51:00,
2013-03-24 17:56:00,28.9,16.0,29.82,WNW,292,12.8,12.8,58,0.00,,---,0.00,VWS V14.01,2013-03-24 22:56:00,
2013-03-24 18:01:00,28.9,15.6,29.82,NNW,338,6.3,8.5,57,0.00,,---,0.00,VWS V14.01,2013-03-24 23:01:00,
2013-03-24 18:06:00,28.9,15.6,29.82,NNW,338,9.4,9.4,57,0.00,,---,0.00,VWS V14.01,2013-03-24 23:06:00,
2013-03-24 18:11:00,28.8,15.9,29.82,NNW,338,4.9,5.4,58,0.00,,---,0.00,VWS V14.01,2013-03-24 23:11:00,
2013-03-24 18:16:00,28.8,15.5,29.85,ESE,112,10.5,10.5,57,0.00,,---,0.00,VWS V14.01,2013-03-24 23:16:00,
2013-03-24 18:21:00,28.8,15.5,29.85,NNW,338,6.3,6.3,57,0.00,,---,0.00,VWS V14.01,2013-03-24 23:21:00,
2013-03-24 18:26:00,28.6,15.3,29.85,WNW,292,4.0,4.0,57,0.00,,---,0.00,VWS V14.01,2013-03-24 23:26:00,
2013-03-24 18:32:00,28.6,15.7,29.85,WNW,292,9.8,9.8,58,0.00,,---,0.00,VWS V14.01,2013-03-24 23:32:00,
2013-03-24 18:37:00,28.6,15.7,29.85,WNW,292,3.1,7.6,58,0.00,,---,0.00,VWS V14.01,2013-03-24 23:37:00,
2013-03-24 18:42:00,28.6,15.7,29.85,NNW,338,2.7,4.7,58,0.00,,---,0.00,VWS V14.01,2013-03-24 23:42:00,
2013-03-24 18:47:00,28.6,16.1,29.85,NE,45,4.9,6.3,59,0.00,,---,0.00,VWS V14.01,2013-03-24 23:47:00,
2013-03-24 18:52:00,28.6,16.1,29.85,NW,315,13.0,13.0,59,0.00,,---,0.00,VWS V14.01,2013-03-24 23:52:00,
2013-03-24 18:57:00,28.4,16.3,29.85,WNW,292,10.1,10.1,60,0.00,,---,0.00,VWS V14.01,2013-03-24 23:57:00,
2013-03-24 19:02:00,28.2,16.1,29.85,NNW,338,5.8,7.8,60,0.00,,---,0.00,VWS V14.01,2013-03-25 00:02:00,
2013-03-24 19:07:00,28.2,16.5,29.85,WNW,292,7.6,7.6,61,0.00,,---,0.00,VWS V14.01,2013-03-25 00:07:00,
2013-03-24 19:12:00,28.0,16.7,29.85,SSW,202,3.8,3.8,62,0.00,,---,0.00,VWS V14.01,2013-03-25 00:12:00,
2013-03-24 19:17:00,27.9,16.5,29.85,NNW,338,12.3,12.3,62,0.00,,---,0.00,VWS V14.01,2013-03-25 00:17:00,
2013-03-24 19:22:00,27.9,16.5,29.85,WNW,292,6.5,10.3,62,0.00,,---,0.00,VWS V14.01,2013-03-25 00:22:00,
2013-03-24 19:27:00,27.7,16.7,29.85,NNW,338,5.4,7.2,63,0.00,,---,0.00,VWS V14.01,2013-03-25 00:27:00,
2013-03-24 19:32:00,27.5,16.6,29.85,WNW,292,1.6,4.9,63,0.00,,---,0.00,VWS V14.01,2013-03-25 00:32:00,
2013-03-24 19:37:00,27.3,16.8,29.85,NW,315,4.0,6.3,64,0.00,,---,0.00,VWS V14.01,2013-03-25 00:37:00,
2013-03-24 19:42:00,27.3,16.8,29.85,WNW,292,7.4,7.4,64,0.00,,---,0.00,VWS V14.01,2013-03-25 00:42:00,
2013-03-24 19:47:00,27.1,17.0,29.85,NNW,338,7.2,7.2,65,0.00,,---,0.00,VWS V14.01,2013-03-25 00:47:00,
2013-03-24 19:52:00,27.0,16.8,29.85,ENE,68,8.5,8.5,65,0.00,,---,0.00,VWS V14.01,2013-03-25 00:52:00,
2013-03-24 19:57:00,27.0,16.8,29.85,ENE,68,6.3,9.6,65,0.00,,---,0.00,VWS V14.01,2013-03-25 00:57:00,
2013-03-24 20:02:00,27.0,17.1,29.85,NNW,338,3.4,4.9,66,0.00,,---,0.00,VWS V14.01,2013-03-25 01:02:00,
2013-03-24 20:07:00,26.8,17.0,29.85,WNW,292,4.0,4.0,66,0.00,,---,0.00,VWS V14.01,2013-03-25 01:07:00,
2013-03-24 20:12:00,26.8,17.3,29.85,WNW,292,7.4,7.4,67,0.00,,---,0.00,VWS V14.01,2013-03-25 01:12:00,
2013-03-24 20:17:00,26.8,17.3,29.85,NNW,338,3.8,6.3,67,0.00,,---,0.00,VWS V14.01,2013-03-25 01:17:00,
2013-03-24 20:22:00,26.8,17.3,29.85,WNW,292,4.0,8.1,67,0.00,,---,0.00,VWS V14.01,2013-03-25 01:22:00,
2013-03-24 20:27:00,26.6,17.5,29.85,NNW,338,3.1,3.1,68,0.00,,---,0.00,VWS V14.01,2013-03-25 01:27:00,
2013-03-24 20:32:00,26.6,17.5,29.85,West,270,4.0,4.0,68,0.00,,---,0.00,VWS V14.01,2013-03-25 01:32:00,
2013-03-24 20:37:00,26.6,17.5,29.85,NNW,338,6.0,6.0,68,0.00,,---,0.00,VWS V14.01,2013-03-25 01:37:00,
2013-03-24 20:42:00,26.6,17.5,29.85,WNW,292,3.6,3.6,68,0.00,,---,0.00,VWS V14.01,2013-03-25 01:42:00,
2013-03-24 20:47:00,26.4,17.3,29.85,NW,315,5.4,5.4,68,0.00,,---,0.00,VWS V14.01,2013-03-25 01:47:00,
2013-03-24 20:52:00,26.4,17.6,29.85,NW,315,5.8,5.8,69,0.00,,---,0.00,VWS V14.01,2013-03-25 01:52:00,
2013-03-24 20:57:00,26.4,17.6,29.85,WNW,292,5.6,5.6,69,0.00,,---,0.00,VWS V14.01,2013-03-25 01:57:00,
2013-03-24 21:02:00,26.4,17.6,29.85,WNW,292,4.7,4.7,69,0.00,,---,0.00,VWS V14.01,2013-03-25 02:02:00,
2013-03-24 21:07:00,26.2,17.8,29.85,NNW,338,5.6,5.6,70,0.00,,---,0.00,VWS V14.01,2013-03-25 02:07:00,
2013-03-24 21:12:00,26.2,17.8,29.85,WNW,292,4.7,4.7,70,0.00,,---,0.00,VWS V14.01,2013-03-25 02:12:00,
2013-03-24 21:17:00,26.2,17.8,29.85,WNW,292,4.7,4.7,70,0.00,,---,0.00,VWS V14.01,2013-03-25 02:17:00,
2013-03-24 21:22:00,26.2,18.1,29.85,WNW,292,6.5,6.5,71,0.00,,---,0.00,VWS V14.01,2013-03-25 02:22:00,
2013-03-24 21:28:00,26.1,18.0,29.85,WNW,292,3.1,3.1,71,0.00,,---,0.00,VWS V14.01,2013-03-25 02:28:00,
2013-03-24 21:33:00,26.1,18.3,29.85,NNW,338,4.3,4.7,72,0.00,,---,0.00,VWS V14.01,2013-03-25 02:33:00,
2013-03-24 21:38:00,26.1,18.3,29.85,NNW,338,6.0,6.0,72,0.00,,---,0.00,VWS V14.01,2013-03-25 02:38:00,
2013-03-24 21:43:00,26.1,18.0,29.85,WNW,292,7.6,7.6,71,0.00,,---,0.00,VWS V14.01,2013-03-25 02:43:00,
2013-03-24 21:48:00,26.1,18.0,29.85,WNW,292,10.7,10.7,71,0.00,,---,0.00,VWS V14.01,2013-03-25 02:48:00,
2013-03-24 21:53:00,26.1,18.0,29.85,WNW,292,4.3,4.3,71,0.00,,---,0.00,VWS V14.01,2013-03-25 02:53:00,
2013-03-24 21:58:00,26.1,18.0,29.85,NNW,338,3.4,3.4,71,0.00,,---,0.00,VWS V14.01,2013-03-25 02:58:00,
2013-03-24 22:03:00,26.1,18.0,29.85,NW,315,2.9,2.9,71,0.00,,---,0.00,VWS V14.01,2013-03-25 03:03:00,
2013-03-24 22:08:00,26.1,18.3,29.85,NNE,22,4.9,4.9,72,0.00,,---,0.00,VWS V14.01,2013-03-25 03:08:00,
2013-03-24 22:13:00,26.1,18.3,29.85,NW,315,11.0,11.0,72,0.00,,---,0.00,VWS V14.01,2013-03-25 03:13:00,
2013-03-24 22:18:00,26.1,18.3,29.85,NNW,338,9.8,9.8,72,0.00,,---,0.00,VWS V14.01,2013-03-25 03:18:00,
2013-03-24 22:23:00,26.1,18.3,29.85,WNW,292,3.8,3.8,72,0.00,,---,0.00,VWS V14.01,2013-03-25 03:23:00,
2013-03-24 22:28:00,26.1,18.6,29.85,NNW,338,3.1,5.6,73,0.00,,---,0.00,VWS V14.01,2013-03-25 03:28:00,
2013-03-24 22:33:00,26.1,18.6,29.85,WNW,292,5.4,5.4,73,0.00,,---,0.00,VWS V14.01,2013-03-25 03:33:00,
2013-03-24 22:38:00,26.1,18.6,29.85,NNE,22,4.9,10.1,73,0.00,,---,0.00,VWS V14.01,2013-03-25 03:38:00,
2013-03-24 22:43:00,26.1,18.9,29.85,WSW,248,4.3,6.0,74,0.00,,---,0.00,VWS V14.01,2013-03-25 03:43:00,
2013-03-24 22:48:00,26.1,19.2,29.85,NNW,338,3.1,5.6,75,0.00,,---,0.00,VWS V14.01,2013-03-25 03:48:00,
2013-03-24 22:53:00,26.1,19.2,29.85,WNW,292,7.6,7.6,75,0.00,,---,0.00,VWS V14.01,2013-03-25 03:53:00,
2013-03-24 22:58:00,26.1,19.2,29.85,NW,315,6.5,6.5,75,0.00,,---,0.00,VWS V14.01,2013-03-25 03:58:00,
2013-03-24 23:00:00,26.1,19.2,29.85,NW,315,8.5,8.5,75,0.00,,---,0.00,VWS V14.01,2013-03-25 04:00:00,
2013-03-24 23:05:00,26.1,19.2,29.85,NW,315,6.0,6.0,75,0.00,,---,0.00,VWS V14.01,2013-03-25 04:05:00,
2013-03-24 23:10:00,26.1,19.2,29.85,NW,315,4.9,5.6,75,0.00,,---,0.00,VWS V14.01,2013-03-25 04:10:00,
2013-03-24 23:15:00,26.1,19.2,29.85,WNW,292,5.8,5.8,75,0.00,,---,0.00,VWS V14.01,2013-03-25 04:15:00,
2013-03-24 23:20:00,25.9,19.4,29.85,WNW,292,4.3,4.3,76,0.00,,---,0.00,VWS V14.01,2013-03-25 04:20:00,
2013-03-24 23:25:00,25.9,19.4,29.85,NNW,338,3.6,3.6,76,0.00,,---,0.00,VWS V14.01,2013-03-25 04:25:00,
2013-03-24 23:30:00,25.9,19.4,29.85,NW,315,5.4,5.4,76,0.00,,---,0.00,VWS V14.01,2013-03-25 04:30:00,
2013-03-24 23:35:00,25.9,19.4,29.85,NNW,338,4.0,4.0,76,0.00,,---,0.00,VWS V14.01,2013-03-25 04:35:00,
2013-03-24 23:40:00,26.1,19.5,29.85,WNW,292,3.8,3.8,76,0.00,,---,0.00,VWS V14.01,2013-03-25 04:40:00,
2013-03-24 23:45:00,26.1,19.9,29.85,WNW,292,4.3,4.3,77,0.00,,---,0.00,VWS V14.01,2013-03-25 04:45:00,
2013-03-24 23:50:00,26.1,19.9,29.85,WNW,292,5.6,5.6,77,0.00,,---,0.00,VWS V14.01,2013-03-25 04:50:00,
2013-03-24 23:55:00,26.2,20.0,29.85,WNW,292,5.4,6.3,77,0.00,,---,0.00,VWS V14.01,2013-03-25 04:55:00,